Time;durP1;ratioP1;P1;durP2;ratioP2;P2;SDS_P1;SDS_P2;PMS_P1;PMS_P2;Temp;Humidity;BMP_temperature;BMP_pressure;BME280_temperature;BME280_humidity;BME280_pressure;Samples;Min_cycle;Max_cycle;Signal;HPM_P1;HPM_P2
2023/10/07 00:02:12;;;;;;;9.57;6.67;;;10.50;99.90;;;;;;5025626;28;20038;-88
2023/10/07 00:04:39;;;;;;;11.17;6.17;;;10.50;99.90;;;;;;5025249;28;20120;-87
2023/10/07 00:07:10;;;;;;;12.20;6.43;;;10.50;99.90;;;;;;5024422;28;20057;-89
2023/10/07 00:09:41;;;;;;;9.63;6.13;;;10.50;99.90;;;;;;5024560;28;20026;-88
2023/10/07 00:12:15;;;;;;;10.33;6.10;;;10.40;99.90;;;;;;5024217;28;20540;-90
2023/10/07 00:14:41;;;;;;;13.20;6.33;;;10.40;99.90;;;;;;5023382;28;20043;-90
2023/10/07 00:17:16;;;;;;;7.88;5.35;;;10.40;99.90;;;;;;5024494;28;20430;-88
2023/10/07 00:19:43;;;;;;;9.30;6.40;;;10.40;99.90;;;;;;5024073;28;20118;-87
2023/10/07 00:22:13;;;;;;;10.93;6.27;;;10.40;99.90;;;;;;5024818;28;20041;-87
2023/10/07 00:24:43;;;;;;;10.67;5.93;;;10.30;99.90;;;;;;5024001;28;20033;-89
2023/10/07 00:30:14;;;;;;;9.77;5.87;;;10.30;99.90;;;;;;5011522;28;20057;-89
2023/10/07 00:32:39;;;;;;;10.03;5.83;;;10.30;99.90;;;;;;5024402;28;20109;-87
2023/10/07 00:35:07;;;;;;;11.00;6.37;;;10.30;99.90;;;;;;5027590;28;20484;-88
2023/10/07 00:37:38;;;;;;;7.23;5.33;;;10.30;99.90;;;;;;5027844;28;20034;-87
2023/10/07 00:40:14;;;;;;;10.23;5.50;;;10.30;99.90;;;;;;5028038;28;20035;-90
2023/10/07 00:42:47;;;;;;;11.07;5.70;;;10.30;99.90;;;;;;5028359;28;20144;-88
2023/10/07 00:45:16;;;;;;;10.70;6.13;;;10.30;99.90;;;;;;5027235;28;20124;-88
2023/10/07 00:47:49;;;;;;;10.37;6.23;;;10.20;99.90;;;;;;5028306;28;20103;-89
2023/10/07 00:50:16;;;;;;;11.67;6.60;;;10.20;99.90;;;;;;5028458;28;20053;-88
2023/10/07 00:52:56;;;;;;;9.60;6.57;;;10.10;99.90;;;;;;5028490;28;20044;-88
2023/10/07 00:55:30;;;;;;;9.90;6.07;;;10.10;99.90;;;;;;5028031;28;20561;-88
2023/10/07 01:01:05;;;;;;;9.47;6.00;;;10.00;99.90;;;;;;5038476;28;20514;-88
2023/10/07 01:03:47;;;;;;;11.33;6.20;;;10.00;99.90;;;;;;5037688;28;20047;-87
2023/10/07 01:06:25;;;;;;;13.20;6.13;;;9.90;99.90;;;;;;5031395;28;20080;-91
2023/10/07 01:08:58;;;;;;;14.50;6.83;;;9.90;99.90;;;;;;5027393;28;20102;-87
2023/10/07 01:11:26;;;;;;;11.93;6.30;;;9.90;99.90;;;;;;5028775;28;20041;-88
2023/10/07 01:13:51;;;;;;;8.30;5.80;;;9.80;99.90;;;;;;5029096;28;20087;-89
2023/10/07 01:19:52;;;;;;;11.87;6.20;;;9.70;99.90;;;;;;5035585;28;20037;-86
2023/10/07 01:32:57;;;;;;;9.80;5.70;;;9.50;99.90;;;;;;5004141;28;20097;-90
2023/10/07 01:35:26;;;;;;;;;;;9.40;99.90;;;;;;5030227;28;20037;-90
2023/10/07 01:38:07;;;;;;;10.27;5.83;;;9.40;99.90;;;;;;5029937;28;21267;-89
2023/10/07 01:43:15;;;;;;;9.87;6.10;;;9.30;99.90;;;;;;5027811;28;20039;-88
2023/10/07 01:45:41;;;;;;;8.23;5.40;;;9.30;99.90;;;;;;5026338;28;20029;-86
2023/10/07 01:48:07;;;;;;;8.83;6.03;;;9.20;99.90;;;;;;5025939;28;20029;-86
2023/10/07 01:50:51;;;;;;;12.87;5.90;;;9.20;99.90;;;;;;5027809;28;20040;-88
2023/10/07 01:53:18;;;;;;;9.20;6.37;;;9.20;99.90;;;;;;5027690;28;20034;-86
2023/10/07 01:55:45;;;;;;;9.83;6.40;;;9.20;99.90;;;;;;5027024;28;20033;-91
2023/10/07 01:58:14;;;;;;;10.37;6.73;;;9.20;99.90;;;;;;5028405;28;20431;-87
2023/10/07 02:00:46;;;;;;;11.13;7.00;;;9.20;99.90;;;;;;5034567;28;20475;-89
2023/10/07 02:03:22;;;;;;;10.50;6.30;;;9.10;99.90;;;;;;5033315;28;20104;-86
2023/10/07 02:05:50;;;;;;;14.67;7.00;;;9.10;99.90;;;;;;5028507;28;20033;-86
2023/10/07 02:08:22;;;;;;;12.63;6.93;;;9.00;99.90;;;;;;5026665;28;20040;-93
2023/10/07 02:10:49;;;;;;;10.40;6.50;;;9.00;99.90;;;;;;5026614;28;20515;-89
2023/10/07 02:13:21;;;;;;;9.90;6.33;;;9.00;99.90;;;;;;5025196;28;20038;-86
2023/10/07 02:15:48;;;;;;;11.30;6.20;;;9.00;99.90;;;;;;5025703;28;20096;-88
2023/10/07 02:18:16;;;;;;;10.43;6.10;;;8.90;99.90;;;;;;5026598;28;21448;-87
2023/10/07 02:21:07;;;;;;;11.00;6.13;;;8.90;99.90;;;;;;5026352;28;20049;-88
2023/10/07 02:23:45;;;;;;;9.17;6.07;;;8.80;99.90;;;;;;5026847;28;20115;-87
2023/10/07 02:26:19;;;;;;;12.87;5.63;;;8.80;99.90;;;;;;5026135;28;20064;-88
2023/10/07 02:28:52;;;;;;;9.77;6.33;;;8.70;99.90;;;;;;5026629;28;20430;-90
2023/10/07 02:31:22;;;;;;;9.93;5.57;;;8.70;99.90;;;;;;5026471;28;20022;-89
2023/10/07 02:33:52;;;;;;;10.73;5.97;;;8.70;99.90;;;;;;5026108;28;20033;-86
2023/10/07 02:36:31;;;;;;;9.20;6.07;;;8.70;99.90;;;;;;5025989;28;20037;-87
2023/10/07 02:39:18;;;;;;;9.73;5.37;;;8.60;99.90;;;;;;5026362;28;20080;-89
2023/10/07 02:41:47;;;;;;;10.30;6.13;;;8.60;99.90;;;;;;5026056;28;20041;-86
2023/10/07 02:44:17;;;;;;;10.37;6.00;;;8.60;99.90;;;;;;5025943;28;20033;-87
2023/10/07 02:46:43;;;;;;;8.50;5.50;;;8.50;99.90;;;;;;5026013;28;20139;-89
2023/10/07 02:49:13;;;;;;;8.57;5.97;;;8.50;99.90;;;;;;5026197;28;20076;-86
2023/10/07 02:51:46;;;;;;;8.10;5.53;;;8.50;99.90;;;;;;5026012;28;20028;-87
2023/10/07 02:54:21;;;;;;;10.00;5.80;;;8.50;99.90;;;;;;5025291;28;20083;-89
2023/10/07 02:56:55;;;;;;;7.32;5.40;;;8.50;99.90;;;;;;5025668;28;20658;-86
2023/10/07 02:59:27;;;;;;;11.68;6.15;;;8.40;99.90;;;;;;5026500;28;20700;-89
2023/10/07 03:04:41;;;;;;;10.70;5.43;;;8.30;99.90;;;;;;5024625;28;20154;-87
2023/10/07 03:07:15;;;;;;;9.23;5.73;;;8.30;99.90;;;;;;5025606;28;20569;-87
2023/10/07 03:09:42;;;;;;;9.27;5.77;;;8.20;99.90;;;;;;5025832;28;20041;-86
2023/10/07 03:12:13;;;;;;;8.10;5.93;;;8.20;99.90;;;;;;5025367;28;20037;-86
2023/10/07 03:14:39;;;;;;;10.90;5.80;;;8.20;99.90;;;;;;5023278;28;20025;-87
2023/10/07 03:17:16;;;;;;;10.10;5.93;;;8.10;99.90;;;;;;5025370;28;21032;-86
2023/10/07 03:19:58;;;;;;;10.37;5.33;;;8.10;99.90;;;;;;5026009;28;20040;-86
2023/10/07 03:22:28;;;;;;;20.80;6.47;;;8.00;99.90;;;;;;5026190;28;20029;-87
2023/10/07 03:25:00;;;;;;;8.33;5.60;;;8.00;99.90;;;;;;5025867;28;20039;-87
2023/10/07 03:27:26;;;;;;;12.47;5.77;;;8.00;99.90;;;;;;5026223;28;21421;-89
2023/10/07 03:30:00;;;;;;;9.07;5.40;;;7.90;99.90;;;;;;5026938;28;20045;-87
2023/10/07 03:32:32;;;;;;;8.20;4.67;;;7.90;99.90;;;;;;5026912;28;20033;-87
2023/10/07 03:34:58;;;;;;;8.43;6.07;;;7.90;99.90;;;;;;5023618;28;20594;-89
2023/10/07 03:37:25;;;;;;;10.73;5.30;;;7.90;99.90;;;;;;5025766;28;20048;-86
2023/10/07 03:42:38;;;;;;;9.10;5.73;;;7.90;99.90;;;;;;5027278;28;20049;-87
2023/10/07 03:45:04;;;;;;;9.67;5.57;;;7.80;99.90;;;;;;5025260;28;20483;-91
2023/10/07 03:47:32;;;;;;;10.70;5.77;;;7.90;99.90;;;;;;5026009;28;20048;-89
2023/10/07 03:49:58;;;;;;;8.10;5.60;;;7.80;99.90;;;;;;5026604;28;20045;-88
2023/10/07 03:52:27;;;;;;;10.00;5.37;;;7.80;99.90;;;;;;5026574;28;20488;-87
2023/10/07 03:54:54;;;;;;;8.00;5.30;;;7.80;99.90;;;;;;5025982;28;20044;-87
2023/10/07 03:57:19;;;;;;;9.37;5.30;;;7.80;99.90;;;;;;5026464;28;20041;-91
2023/10/07 03:59:46;;;;;;;9.13;5.67;;;7.70;99.90;;;;;;5026568;28;20091;-87
2023/10/07 04:05:14;;;;;;;9.23;5.87;;;7.70;99.90;;;;;;5026407;28;20035;-89
2023/10/07 04:07:43;;;;;;;9.27;5.27;;;7.70;99.90;;;;;;5027224;28;20305;-87
2023/10/07 04:10:36;;;;;;;10.50;5.57;;;7.70;99.90;;;;;;5027974;28;20081;-87
2023/10/07 04:13:07;;;;;;;9.67;5.07;;;7.60;99.90;;;;;;5031937;28;20093;-88
2023/10/07 04:15:51;;;;;;;8.53;5.60;;;7.60;99.90;;;;;;5031570;28;20110;-88
2023/10/07 04:18:17;;;;;;;7.50;5.30;;;7.60;99.90;;;;;;5036069;28;20056;-86
2023/10/07 04:23:21;;;;;;;9.13;5.67;;;7.50;99.90;;;;;;5066569;28;20035;-86
2023/10/07 04:25:47;;;;;;;7.53;5.20;;;7.50;99.90;;;;;;5045421;28;20033;-86
2023/10/07 04:28:13;;;;;;;10.90;5.77;;;7.50;99.90;;;;;;5031107;28;20033;-86
2023/10/07 04:30:39;;;;;;;9.47;5.60;;;7.50;99.90;;;;;;5026957;28;20546;-86
2023/10/07 04:33:10;;;;;;;8.13;5.63;;;7.40;99.90;;;;;;5025440;28;20041;-86
2023/10/07 04:35:38;;;;;;;11.00;6.20;;;7.40;99.90;;;;;;5024927;28;20029;-85
2023/10/07 04:38:30;;;;;;;8.37;5.50;;;7.40;99.90;;;;;;5028120;28;20036;-87
2023/10/07 04:43:50;;;;;;;9.40;5.53;;;7.40;99.90;;;;;;5025313;28;20537;-88
2023/10/07 04:46:29;;;;;;;9.20;6.07;;;7.30;99.90;;;;;;5025769;28;20044;-86
2023/10/07 04:49:18;;;;;;;11.07;5.63;;;7.40;99.90;;;;;;5025521;28;20432;-87
2023/10/07 04:54:07;;;;;;;8.57;6.17;;;7.30;99.90;;;;;;5028766;28;20497;-89
2023/10/07 04:56:35;;;;;;;10.37;5.93;;;7.30;99.90;;;;;;5030145;28;20121;-86
2023/10/07 04:59:05;;;;;;;10.73;5.50;;;7.30;99.90;;;;;;5032832;28;20022;-86
2023/10/07 05:01:31;;;;;;;9.30;5.33;;;7.30;99.90;;;;;;5037748;28;20125;-88
2023/10/07 05:04:05;;;;;;;9.83;5.47;;;7.20;99.90;;;;;;5032548;28;20037;-86
2023/10/07 05:06:34;;;;;;;8.77;6.00;;;7.20;99.90;;;;;;5030546;28;20040;-86
2023/10/07 05:09:18;;;;;;;12.27;5.70;;;7.20;99.90;;;;;;5028593;28;20032;-88
2023/10/07 05:11:45;;;;;;;9.20;6.10;;;7.10;99.90;;;;;;5022869;28;20049;-78
2023/10/07 05:14:12;;;;;;;8.97;6.13;;;7.10;99.90;;;;;;5021171;28;20112;-86
2023/10/07 05:16:38;;;;;;;9.73;6.30;;;7.10;99.90;;;;;;5027537;28;20077;-90
2023/10/07 05:19:08;;;;;;;12.90;6.77;;;7.10;99.90;;;;;;5027101;28;20087;-84
2023/10/07 05:21:37;;;;;;;10.83;7.00;;;7.10;99.90;;;;;;5028270;28;20767;-84
2023/10/07 05:24:04;;;;;;;13.03;7.00;;;7.10;99.90;;;;;;5029796;28;20395;-85
2023/10/07 05:26:31;;;;;;;11.23;6.93;;;7.10;99.90;;;;;;5027629;28;20762;-85
2023/10/07 05:29:02;;;;;;;11.90;7.33;;;7.20;99.90;;;;;;5028519;28;20033;-85
2023/10/07 05:31:30;;;;;;;10.50;7.63;;;7.20;99.90;;;;;;5029552;28;20033;-87
2023/10/07 05:33:59;;;;;;;11.27;7.87;;;7.30;99.90;;;;;;5031104;28;20060;-82
2023/10/07 05:36:29;;;;;;;11.37;6.70;;;7.30;99.90;;;;;;5030410;28;20029;-82
2023/10/07 05:38:55;;;;;;;14.40;6.40;;;7.30;99.90;;;;;;5029826;28;20510;-81
2023/10/07 05:41:25;;;;;;;10.63;6.23;;;7.20;99.90;;;;;;5029140;28;20554;-81
2023/10/07 05:43:51;;;;;;;10.13;5.97;;;7.20;99.90;;;;;;5028592;28;20068;-81
2023/10/07 05:46:20;;;;;;;12.07;7.23;;;7.20;99.90;;;;;;5028024;28;20124;-81
2023/10/07 05:48:47;;;;;;;12.60;7.63;;;7.20;99.90;;;;;;5028677;28;20026;-84
2023/10/07 05:51:13;;;;;;;9.53;7.23;;;7.20;99.90;;;;;;5028705;28;20060;-81
2023/10/07 05:53:51;;;;;;;14.30;7.77;;;7.20;99.90;;;;;;5026312;28;20137;-74
2023/10/07 05:56:17;;;;;;;14.63;8.07;;;7.20;99.90;;;;;;5024107;28;20128;-84
2023/10/07 05:58:44;;;;;;;13.37;7.73;;;7.20;99.90;;;;;;5025750;28;20053;-76
2023/10/07 06:01:18;;;;;;;13.10;8.20;;;7.30;99.90;;;;;;5025901;28;20033;-75
2023/10/07 06:03:44;;;;;;;13.57;8.40;;;7.30;99.90;;;;;;5026340;28;20033;-75
2023/10/07 06:06:10;;;;;;;10.27;7.70;;;7.40;99.90;;;;;;5027302;28;20038;-79
2023/10/07 06:08:35;;;;;;;13.80;7.20;;;7.50;99.90;;;;;;5027163;28;20099;-80
2023/10/07 06:11:02;;;;;;;14.00;7.67;;;7.60;99.90;;;;;;5027612;28;20112;-79
2023/10/07 06:13:28;;;;;;;11.03;7.37;;;7.70;99.90;;;;;;5026450;28;20120;-79
2023/10/07 06:15:58;;;;;;;12.87;7.60;;;7.80;99.90;;;;;;5026253;28;20022;-79
2023/10/07 06:18:27;;;;;;;10.57;6.50;;;7.90;99.90;;;;;;5026256;28;20037;-76
2023/10/07 06:20:53;;;;;;;11.50;7.10;;;7.90;99.90;;;;;;5029490;28;20029;-79
2023/10/07 06:23:20;;;;;;;17.67;8.03;;;8.10;99.90;;;;;;5028608;28;20133;-80
2023/10/07 06:25:50;;;;;;;13.00;7.37;;;8.10;99.90;;;;;;5027705;28;20037;-80
2023/10/07 06:31:12;;;;;;;11.00;7.67;;;8.20;99.90;;;;;;5028933;28;20028;-79
2023/10/07 06:33:40;;;;;;;11.47;7.03;;;8.30;99.90;;;;;;5029360;28;20108;-80
2023/10/07 06:36:07;;;;;;;13.30;8.37;;;8.40;99.90;;;;;;5029086;28;20090;-80
2023/10/07 06:38:33;;;;;;;12.60;7.83;;;8.50;99.90;;;;;;5028708;28;20112;-80
2023/10/07 06:40:59;;;;;;;13.43;7.63;;;8.60;99.90;;;;;;5029378;28;20796;-80
2023/10/07 06:43:25;;;;;;;12.73;7.10;;;8.70;99.90;;;;;;5029239;28;20861;-80
2023/10/07 06:45:54;;;;;;;15.97;8.07;;;8.80;99.90;;;;;;5027616;28;20738;-80
2023/10/07 06:48:25;;;;;;;12.37;7.53;;;8.90;99.90;;;;;;5028747;28;20362;-80
2023/10/07 06:50:55;;;;;;;17.53;6.93;;;9.00;99.90;;;;;;5028313;28;20090;-80
2023/10/07 06:53:23;;;;;;;12.30;7.20;;;9.10;99.90;;;;;;5028698;28;20033;-80
2023/10/07 06:55:51;;;;;;;10.67;6.90;;;9.30;99.90;;;;;;5028707;28;20022;-80
2023/10/07 06:58:22;;;;;;;15.77;6.63;;;9.50;99.90;;;;;;5029977;28;20034;-81
2023/10/07 07:00:49;;;;;;;13.10;6.20;;;9.60;99.90;;;;;;5030667;28;20118;-80
2023/10/07 07:03:18;;;;;;;13.13;5.67;;;9.80;99.90;;;;;;5030183;28;20033;-81
2023/10/07 07:05:48;;;;;;;10.13;5.83;;;10.00;99.90;;;;;;5029366;28;20045;-81
2023/10/07 07:08:14;;;;;;;11.77;6.13;;;10.20;99.90;;;;;;5029807;28;20033;-81
2023/10/07 07:10:40;;;;;;;9.60;5.37;;;10.30;99.90;;;;;;5031723;28;20030;-80
2023/10/07 07:13:13;;;;;;;10.53;5.70;;;10.50;99.90;;;;;;5033843;28;20049;-80
2023/10/07 07:15:41;;;;;;;8.50;5.03;;;10.70;99.90;;;;;;5036944;28;20033;-81
2023/10/07 07:18:14;;;;;;;11.80;4.70;;;10.90;99.90;;;;;;5048926;28;20022;-80
2023/10/07 07:21:00;;;;;;;11.67;5.00;;;11.10;99.90;;;;;;5050089;28;20044;-80
2023/10/07 07:23:34;;;;;;;8.55;4.97;;;11.30;99.90;;;;;;5030983;28;20029;-81
2023/10/07 07:28:30;;;;;;;8.77;4.32;;;11.70;99.90;;;;;;5026682;28;20116;-81
2023/10/07 07:31:00;;;;;;;7.93;4.28;;;11.90;99.90;;;;;;5026585;28;20096;-81
2023/10/07 07:33:34;;;;;;;9.75;4.88;;;12.10;99.90;;;;;;5026754;28;20029;-81
2023/10/07 07:36:03;;;;;;;10.38;4.43;;;12.20;99.90;;;;;;5026699;28;20140;-81
2023/10/07 07:38:43;;;;;;;8.15;4.10;;;12.40;99.90;;;;;;5026169;28;20128;-81
2023/10/07 07:41:09;;;;;;;7.43;4.07;;;12.60;99.90;;;;;;5026596;28;20040;-81
2023/10/07 07:43:37;;;;;;;8.45;4.45;;;12.80;99.90;;;;;;5028040;28;21396;-81
2023/10/07 07:48:43;;;;;;;7.38;4.00;;;13.10;99.90;;;;;;5027971;28;20499;-81
2023/10/07 07:51:11;;;;;;;7.63;4.20;;;13.30;99.90;;;;;;5028127;28;20068;-81
2023/10/07 07:53:37;;;;;;;7.53;4.10;;;13.50;99.90;;;;;;5028300;28;20065;-81
2023/10/07 07:56:08;;;;;;;6.95;4.10;;;13.70;99.90;;;;;;5028022;28;20720;-81
2023/10/07 07:58:37;;;;;;;10.30;4.78;;;13.80;99.90;;;;;;5027457;28;20052;-82
2023/10/07 08:01:05;;;;;;;11.18;5.50;;;14.00;99.90;;;;;;5028691;28;20236;-81
2023/10/07 08:03:35;;;;;;;8.55;4.47;;;14.10;99.90;;;;;;5028302;28;20029;-81
2023/10/07 08:06:03;;;;;;;9.13;4.78;;;14.30;99.90;;;;;;5027970;28;20025;-83
2023/10/07 08:08:29;;;;;;;6.72;4.25;;;14.40;99.90;;;;;;5028575;28;20028;-82
2023/10/07 08:10:55;;;;;;;7.45;4.25;;;14.60;99.90;;;;;;5029742;28;20033;-82
2023/10/07 08:13:27;;;;;;;10.32;4.68;;;14.70;99.90;;;;;;5028790;28;20105;-82
2023/10/07 08:15:56;;;;;;;9.23;4.57;;;14.90;99.90;;;;;;5029797;28;20037;-82
2023/10/07 08:18:28;;;;;;;7.30;4.53;;;15.00;99.90;;;;;;5032159;28;20052;-82
2023/10/07 08:21:07;;;;;;;9.18;4.18;;;15.20;99.90;;;;;;5029660;28;20056;-82
2023/10/07 08:23:37;;;;;;;7.82;4.43;;;15.30;99.90;;;;;;5028765;28;21054;-82
2023/10/07 08:26:10;;;;;;;6.97;3.65;;;15.40;99.90;;;;;;5027237;28;20112;-82
2023/10/07 08:28:45;;;;;;;10.40;4.70;;;15.70;99.90;;;;;;5028248;28;20034;-82
2023/10/07 08:31:58;;;;;;;9.60;4.05;;;15.90;99.90;;;;;;5028027;28;20036;-82
2023/10/07 08:36:39;;;;;;;7.30;3.97;;;16.30;99.90;;;;;;5028250;28;20098;-82
2023/10/07 08:39:16;;;;;;;9.18;3.90;;;16.50;99.90;;;;;;5027615;28;20069;-83
2023/10/07 08:41:47;;;;;;;7.93;4.43;;;16.80;99.90;;;;;;5028334;28;20105;-83
2023/10/07 08:44:15;;;;;;;9.63;4.28;;;17.00;99.90;;;;;;5028767;28;20033;-83
2023/10/07 08:47:03;;;;;;;7.15;3.97;;;17.20;99.90;;;;;;5028375;28;20029;-84
2023/10/07 08:49:33;;;;;;;11.02;3.92;;;17.40;99.90;;;;;;5029130;28;20255;-82
2023/10/07 08:51:59;;;;;;;8.32;3.72;;;17.60;99.90;;;;;;5027837;28;20037;-83
2023/10/07 08:54:26;;;;;;;10.45;4.55;;;17.70;99.90;;;;;;5030362;28;20026;-83
2023/10/07 08:56:55;;;;;;;7.60;3.80;;;17.80;99.90;;;;;;5034299;28;20033;-83
2023/10/07 08:59:25;;;;;;;9.63;4.20;;;17.80;99.90;;;;;;5032364;28;20040;-83
2023/10/07 09:02:00;;;;;;;7.55;4.13;;;17.90;99.90;;;;;;5033330;28;20467;-83
2023/10/07 09:04:31;;;;;;;9.30;4.35;;;18.00;99.90;;;;;;5033461;28;20083;-83
2023/10/07 09:06:58;;;;;;;8.60;4.20;;;18.10;99.90;;;;;;5033472;28;20038;-83
2023/10/07 09:09:45;;;;;;;7.53;3.80;;;18.30;99.90;;;;;;5032085;28;20092;-83
2023/10/07 09:12:14;;;;;;;7.60;4.25;;;18.40;99.90;;;;;;5032216;28;20108;-82
2023/10/07 09:14:51;;;;;;;7.78;3.75;;;18.60;99.90;;;;;;5030730;28;20041;-83
2023/10/07 09:17:22;;;;;;;6.47;3.72;;;18.80;99.90;;;;;;5030603;28;20049;-82
2023/10/07 09:19:58;;;;;;;9.73;4.20;;;19.00;99.90;;;;;;5030441;28;20341;-84
2023/10/07 09:22:34;;;;;;;9.07;4.32;;;19.10;99.90;;;;;;5030824;28;20032;-83
2023/10/07 09:25:16;;;;;;;6.65;4.05;;;19.20;99.90;;;;;;5029925;28;21529;-83
2023/10/07 09:27:54;;;;;;;8.55;3.80;;;19.20;99.90;;;;;;5030539;28;20040;-83
2023/10/07 09:33:13;;;;;;;6.70;3.88;;;19.40;99.90;;;;;;5031601;28;20095;-84
2023/10/07 09:35:43;;;;;;;9.25;4.45;;;19.40;99.90;;;;;;5030179;28;20688;-83
2023/10/07 09:38:12;;;;;;;7.22;3.88;;;19.40;99.90;;;;;;5030034;28;20029;-83
2023/10/07 09:43:27;;;;;;;7.30;4.10;;;19.70;99.90;;;;;;5029072;28;20063;-83
2023/10/07 09:45:53;;;;;;;7.15;3.80;;;19.70;99.90;;;;;;5029091;28;20107;-83
2023/10/07 09:48:33;;;;;;;8.48;4.10;;;19.80;99.90;;;;;;5028590;28;20040;-84
2023/10/07 09:51:02;;;;;;;10.25;3.63;;;19.90;99.90;;;;;;5029624;28;20021;-83
2023/10/07 09:53:36;;;;;;;7.45;4.25;;;19.90;99.90;;;;;;5027214;28;20175;-84
2023/10/07 09:56:21;;;;;;;8.00;4.05;;;20.00;99.90;;;;;;5027699;28;20192;-83
2023/10/07 09:59:17;;;;;;;9.75;3.97;;;20.10;99.90;;;;;;5033000;28;20079;-84
2023/10/07 10:01:54;;;;;;;8.70;3.95;;;20.20;99.90;;;;;;5035229;28;20034;-83
2023/10/07 10:04:38;;;;;;;9.82;4.00;;;20.30;99.90;;;;;;5034063;28;20036;-84
2023/10/07 10:07:29;;;;;;;7.38;3.75;;;20.40;99.90;;;;;;5033893;28;20120;-82
2023/10/07 10:10:15;;;;;;;9.23;4.25;;;20.70;99.90;;;;;;5036185;28;20038;-83
2023/10/07 10:18:31;;;;;;;8.80;4.03;;;20.90;99.90;;;;;;5047755;28;20829;-84
2023/10/07 10:21:09;;;;;;;8.48;3.75;;;20.90;99.90;;;;;;5034392;28;20079;-84
2023/10/07 10:23:37;;;;;;;8.88;4.07;;;20.90;99.90;;;;;;5031602;28;20063;-83
2023/10/07 10:26:21;;;;;;;10.55;3.92;;;21.00;99.90;;;;;;5029472;28;20057;-84
2023/10/07 10:28:59;;;;;;;9.07;4.40;;;21.20;99.90;;;;;;5030450;28;20021;-83
2023/10/07 10:31:32;;;;;;;6.13;3.47;;;21.30;99.90;;;;;;5032383;28;20033;-83
2023/10/07 10:34:05;;;;;;;6.60;4.05;;;21.40;99.90;;;;;;5031578;28;20040;-83
2023/10/07 10:36:35;;;;;;;7.43;3.88;;;21.50;99.90;;;;;;5030399;28;20060;-83
2023/10/07 10:39:05;;;;;;;10.25;3.97;;;21.60;99.90;;;;;;5031847;28;20052;-84
2023/10/07 10:41:32;;;;;;;8.50;4.22;;;21.70;99.90;;;;;;5032676;28;20215;-84
2023/10/07 10:44:06;;;;;;;8.02;4.20;;;21.90;99.90;;;;;;5031496;28;20416;-84
2023/10/07 10:46:44;;;;;;;7.00;3.63;;;22.00;99.90;;;;;;5031632;28;20037;-83
2023/10/07 10:49:11;;;;;;;8.13;3.80;;;22.10;99.90;;;;;;5033518;28;20120;-83
2023/10/07 10:51:45;;;;;;;10.38;3.83;;;22.20;99.90;;;;;;5028783;28;20172;-84
2023/10/07 10:54:15;;;;;;;10.60;3.97;;;22.20;99.90;;;;;;5028401;28;20596;-84
2023/10/07 10:57:00;;;;;;;10.38;3.75;;;22.10;99.90;;;;;;5029797;28;20041;-84
2023/10/07 10:59:42;;;;;;;8.93;3.80;;;22.10;99.90;;;;;;5028218;28;21745;-84
2023/10/07 11:02:20;;;;;;;6.07;3.70;;;22.10;99.90;;;;;;5028983;28;20029;-85
2023/10/07 11:04:55;;;;;;;8.48;3.70;;;22.10;99.90;;;;;;5029233;28;20033;-84
2023/10/07 11:07:24;;;;;;;7.60;3.80;;;21.90;99.90;;;;;;5028698;28;20040;-85
2023/10/07 11:09:54;;;;;;;7.35;3.53;;;21.80;99.90;;;;;;5028744;28;20033;-83
2023/10/07 11:12:26;;;;;;;7.13;3.10;;;21.70;99.90;;;;;;5028005;28;20408;-84
2023/10/07 11:15:14;;;;;;;10.68;3.88;;;21.70;99.90;;;;;;5028701;28;20514;-83
2023/10/07 11:17:43;;;;;;;9.52;3.60;;;21.70;99.90;;;;;;5028841;28;20043;-84
2023/10/07 11:20:12;;;;;;;8.35;3.63;;;21.50;99.90;;;;;;5028115;28;20033;-84
2023/10/07 11:22:39;;;;;;;9.43;3.30;;;21.40;99.90;;;;;;5027691;28;20037;-84
2023/10/07 11:25:11;;;;;;;8.90;3.47;;;21.20;99.90;;;;;;5028641;28;20443;-84
2023/10/07 11:27:37;;;;;;;7.38;3.22;;;21.00;99.90;;;;;;5029502;28;20037;-84
2023/10/07 11:30:06;;;;;;;6.30;3.22;;;20.80;99.90;;;;;;5030124;28;20036;-83
2023/10/07 11:32:38;;;;;;;6.97;2.92;;;20.70;99.90;;;;;;5030833;28;20072;-83
2023/10/07 11:35:27;;;;;;;9.90;3.53;;;20.60;99.90;;;;;;5031084;28;20037;-83
2023/10/07 11:37:57;;;;;;;6.68;3.78;;;20.40;99.90;;;;;;5028492;28;20025;-83
2023/10/07 11:40:23;;;;;;;9.15;3.83;;;20.30;99.90;;;;;;5028034;28;20115;-83
2023/10/07 11:42:49;;;;;;;11.23;3.40;;;20.30;99.90;;;;;;5030892;28;20048;-82
2023/10/07 11:45:16;;;;;;;12.32;4.32;;;20.30;99.90;;;;;;5028054;28;20029;-84
2023/10/07 11:47:44;;;;;;;7.30;3.13;;;20.20;99.90;;;;;;5029692;28;20070;-83
2023/10/07 11:50:12;;;;;;;6.28;3.30;;;20.20;99.90;;;;;;5029727;28;20056;-83
2023/10/07 11:52:40;;;;;;;8.32;3.15;;;20.20;99.90;;;;;;5029128;28;20506;-83
2023/10/07 11:55:07;;;;;;;8.18;3.58;;;20.20;99.90;;;;;;5028118;28;20037;-84
2023/10/07 11:57:34;;;;;;;9.20;3.50;;;20.20;99.90;;;;;;5029376;28;20129;-83
2023/10/07 12:00:00;;;;;;;10.30;3.83;;;20.10;99.90;;;;;;5027961;28;20114;-83
2023/10/07 12:02:25;;;;;;;9.13;3.85;;;20.10;99.90;;;;;;5029474;28;20074;-84
2023/10/07 12:04:53;;;;;;;7.22;3.50;;;20.20;99.90;;;;;;5028441;28;20032;-82
2023/10/07 12:07:19;;;;;;;7.03;3.13;;;20.10;99.90;;;;;;5029005;28;20059;-83
2023/10/07 12:09:47;;;;;;;6.90;3.33;;;20.10;99.90;;;;;;5029971;28;20060;-83
2023/10/07 12:12:17;;;;;;;10.10;3.75;;;20.20;99.90;;;;;;5029565;28;20070;-82
2023/10/07 12:14:43;;;;;;;6.13;3.40;;;20.30;99.90;;;;;;5028760;28;20411;-83
2023/10/07 12:17:08;;;;;;;8.80;3.00;;;20.30;99.90;;;;;;5029910;28;20033;-83
2023/10/07 12:19:36;;;;;;;7.75;2.90;;;20.40;99.90;;;;;;5030118;28;20053;-83
2023/10/07 12:22:05;;;;;;;5.90;3.05;;;20.50;99.90;;;;;;5029814;28;20033;-83
2023/10/07 12:24:34;;;;;;;12.65;3.83;;;20.50;99.90;;;;;;5029674;28;20121;-83
2023/10/07 12:27:00;;;;;;;10.45;3.05;;;20.50;99.90;;;;;;5028810;28;20152;-84
2023/10/07 12:29:27;;;;;;;8.20;3.40;;;20.60;99.90;;;;;;5033399;28;20025;-84
2023/10/07 12:31:55;;;;;;;10.40;3.40;;;20.60;99.90;;;;;;5032978;28;20037;-82
2023/10/07 12:34:23;;;;;;;10.20;3.30;;;20.60;99.90;;;;;;5031116;28;20515;-83
2023/10/07 12:36:52;;;;;;;6.30;3.60;;;20.60;99.90;;;;;;5033242;28;20095;-82
2023/10/07 12:39:21;;;;;;;6.68;3.10;;;20.60;99.90;;;;;;5032212;28;20041;-82
2023/10/07 12:41:47;;;;;;;6.28;3.47;;;20.70;99.90;;;;;;5033200;28;20029;-83
2023/10/07 12:44:13;;;;;;;6.85;3.22;;;20.70;99.90;;;;;;5033284;28;20037;-83
2023/10/07 12:46:43;;;;;;;7.15;3.28;;;20.70;99.90;;;;;;5032372;28;20052;-83
2023/10/07 12:49:10;;;;;;;5.63;2.75;;;20.70;99.90;;;;;;5033112;28;20116;-83
2023/10/07 12:51:43;;;;;;;7.25;3.05;;;20.60;99.90;;;;;;5032772;28;20063;-83
2023/10/07 12:54:09;;;;;;;5.55;3.10;;;20.60;99.90;;;;;;5033737;28;20171;-83
2023/10/07 12:56:39;;;;;;;6.47;3.13;;;20.50;99.90;;;;;;5033875;28;20044;-84
2023/10/07 12:59:23;;;;;;;7.88;3.08;;;20.50;99.90;;;;;;5035706;28;20048;-84
2023/10/07 13:01:55;;;;;;;6.50;2.80;;;20.50;99.90;;;;;;5033985;28;20400;-83
2023/10/07 13:04:34;;;;;;;3.97;2.53;;;20.50;99.90;;;;;;5030832;28;20057;-84
2023/10/07 13:07:03;;;;;;;6.15;2.47;;;20.60;99.90;;;;;;5035737;28;20061;-84
2023/10/07 13:09:33;;;;;;;5.32;3.10;;;20.70;99.90;;;;;;5040545;28;20116;-83
2023/10/07 13:11:59;;;;;;;4.80;2.63;;;20.70;99.90;;;;;;5049989;28;20052;-82
2023/10/07 13:14:26;;;;;;;5.95;2.88;;;20.60;99.90;;;;;;5050794;28;20024;-83
2023/10/07 13:16:56;;;;;;;7.32;2.78;;;20.60;99.90;;;;;;5039903;28;20021;-83
2023/10/07 13:19:26;;;;;;;9.18;3.20;;;20.60;99.90;;;;;;5025223;28;20088;-83
2023/10/07 13:21:59;;;;;;;7.88;3.00;;;20.60;99.90;;;;;;5030182;28;20030;-83
2023/10/07 13:24:25;;;;;;;5.13;2.60;;;20.60;99.90;;;;;;5026533;28;20036;-83
2023/10/07 13:26:50;;;;;;;7.03;3.05;;;20.70;99.90;;;;;;5026374;28;20823;-84
2023/10/07 13:29:16;;;;;;;8.23;3.10;;;20.70;99.90;;;;;;5025804;28;20038;-83
2023/10/07 13:31:42;;;;;;;6.70;2.95;;;20.80;99.90;;;;;;5026234;28;20036;-84
2023/10/07 13:34:07;;;;;;;8.05;2.92;;;20.90;99.90;;;;;;5026232;28;20033;-83
2023/10/07 13:36:38;;;;;;;6.32;2.90;;;20.90;99.90;;;;;;5027492;28;20032;-83
2023/10/07 13:39:05;;;;;;;9.55;2.83;;;20.90;99.90;;;;;;5030730;28;20128;-83
2023/10/07 13:41:31;;;;;;;7.32;2.88;;;20.80;99.90;;;;;;5023616;28;20048;-83
2023/10/07 13:43:56;;;;;;;6.53;3.10;;;20.70;99.90;;;;;;5026020;28;20066;-83
2023/10/07 13:46:23;;;;;;;7.07;3.58;;;20.60;99.90;;;;;;5026563;28;20686;-85
2023/10/07 13:48:48;;;;;;;7.07;3.28;;;20.50;99.90;;;;;;5026289;28;20029;-84
2023/10/07 13:51:15;;;;;;;6.25;3.15;;;20.40;99.90;;;;;;5025008;28;20776;-84
2023/10/07 13:56:44;;;;;;;7.45;3.45;;;20.20;99.90;;;;;;5024192;28;21554;-84
2023/10/07 13:59:11;;;;;;;;;;;20.10;99.90;;;;;;5034377;28;20033;-84
2023/10/07 14:01:37;;;;;;;8.05;3.38;;;20.10;99.90;;;;;;5032659;28;19913;-84
2023/10/07 14:04:03;;;;;;;7.68;3.78;;;20.10;99.90;;;;;;5029316;28;20029;-84
2023/10/07 14:06:28;;;;;;;6.22;3.40;;;20.00;99.90;;;;;;5025649;28;20040;-83
2023/10/07 14:08:55;;;;;;;7.90;3.33;;;19.90;99.90;;;;;;5034110;28;20689;-84
2023/10/07 14:11:20;;;;;;;7.95;3.55;;;19.80;99.90;;;;;;5026497;28;20034;-84